sensor_id;sensor_type;location;lat;lon;timestamp;pressure;altitude;pressure_sealevel;temperature;humidity
46718;BME280;32448;44.960;-0.698;2023-04-27T00:01:56;101519.97;;;12.79;100.00
46718;BME280;32448;44.960;-0.698;2023-04-27T00:04:23;101510.31;;;12.77;100.00
46718;BME280;32448;44.960;-0.698;2023-04-27T00:06:51;101503.28;;;12.76;100.00
46718;BME280;32448;44.960;-0.698;2023-04-27T00:09:18;101505.91;;;12.76;100.00
46718;BME280;32448;44.960;-0.698;2023-04-27T00:11:45;101486.66;;;12.76;100.00
46718;BME280;32448;44.960;-0.698;2023-04-27T00:14:12;101490.16;;;12.75;100.00
46718;BME280;32448;44.960;-0.698;2023-04-27T00:16:40;101494.47;;;12.73;100.00
46718;BME280;32448;44.960;-0.698;2023-04-27T00:19:07;101490.03;;;12.69;100.00
46718;BME280;32448;44.960;-0.698;2023-04-27T00:21:34;101481.34;;;12.73;100.00
46718;BME280;32448;44.960;-0.698;2023-04-27T00:24:01;101485.00;;;12.80;100.00
46718;BME280;32448;44.960;-0.698;2023-04-27T00:26:28;101485.78;;;12.75;100.00
46718;BME280;32448;44.960;-0.698;2023-04-27T00:28:56;101489.25;;;12.74;100.00
46718;BME280;32448;44.960;-0.698;2023-04-27T00:31:24;101487.50;;;12.73;100.00
46718;BME280;32448;44.960;-0.698;2023-04-27T00:33:51;101495.28;;;12.70;100.00
46718;BME280;32448;44.960;-0.698;2023-04-27T00:36:18;101491.84;;;12.73;100.00
46718;BME280;32448;44.960;-0.698;2023-04-27T00:38:46;101489.22;;;12.73;100.00
46718;BME280;32448;44.960;-0.698;2023-04-27T00:41:13;101489.28;;;12.76;100.00
46718;BME280;32448;44.960;-0.698;2023-04-27T00:43:41;101483.09;;;12.72;100.00
46718;BME280;32448;44.960;-0.698;2023-04-27T00:46:09;101485.69;;;12.69;100.00
46718;BME280;32448;44.960;-0.698;2023-04-27T00:48:38;101482.09;;;12.66;100.00
46718;BME280;32448;44.960;-0.698;2023-04-27T00:51:06;101483.88;;;12.67;100.00
46718;BME280;32448;44.960;-0.698;2023-04-27T00:53:33;101483.84;;;12.65;100.00
46718;BME280;32448;44.960;-0.698;2023-04-27T00:56:02;101472.44;;;12.63;100.00
46718;BME280;32448;44.960;-0.698;2023-04-27T00:58:29;101474.00;;;12.54;100.00
46718;BME280;32448;44.960;-0.698;2023-04-27T01:00:57;101471.47;;;12.58;100.00
46718;BME280;32448;44.960;-0.698;2023-04-27T01:03:25;101465.34;;;12.58;100.00
46718;BME280;32448;44.960;-0.698;2023-04-27T01:05:52;101465.38;;;12.61;100.00
46718;BME280;32448;44.960;-0.698;2023-04-27T01:08:19;101470.66;;;12.62;100.00
46718;BME280;32448;44.960;-0.698;2023-04-27T01:10:46;101461.09;;;12.64;100.00
46718;BME280;32448;44.960;-0.698;2023-04-27T01:13:15;101454.03;;;12.62;100.00
46718;BME280;32448;44.960;-0.698;2023-04-27T01:15:44;101451.47;;;12.65;100.00
46718;BME280;32448;44.960;-0.698;2023-04-27T01:18:11;101455.84;;;12.64;100.00
46718;BME280;32448;44.960;-0.698;2023-04-27T01:20:38;101454.09;;;12.65;100.00
46718;BME280;32448;44.960;-0.698;2023-04-27T01:23:07;101457.53;;;12.62;100.00
46718;BME280;32448;44.960;-0.698;2023-04-27T01:25:34;101460.13;;;12.61;100.00
46718;BME280;32448;44.960;-0.698;2023-04-27T01:28:01;101453.13;;;12.60;100.00
46718;BME280;32448;44.960;-0.698;2023-04-27T01:30:28;101443.41;;;12.54;100.00
46718;BME280;32448;44.960;-0.698;2023-04-27T01:32:57;101442.31;;;12.43;100.00
46718;BME280;32448;44.960;-0.698;2023-04-27T01:35:24;101444.16;;;12.47;100.00
46718;BME280;32448;44.960;-0.698;2023-04-27T01:37:58;101436.31;;;12.50;100.00
46718;BME280;32448;44.960;-0.698;2023-04-27T01:40:25;101443.34;;;12.51;100.00
46718;BME280;32448;44.960;-0.698;2023-04-27T01:42:52;101444.19;;;12.50;100.00
46718;BME280;32448;44.960;-0.698;2023-04-27T01:45:19;101438.03;;;12.48;100.00
46718;BME280;32448;44.960;-0.698;2023-04-27T01:47:49;101438.03;;;12.48;100.00
46718;BME280;32448;44.960;-0.698;2023-04-27T01:50:18;101434.53;;;12.49;100.00
46718;BME280;32448;44.960;-0.698;2023-04-27T01:52:45;101439.78;;;12.48;100.00
46718;BME280;32448;44.960;-0.698;2023-04-27T01:55:12;101435.44;;;12.50;100.00
46718;BME280;32448;44.960;-0.698;2023-04-27T01:57:40;101431.88;;;12.46;100.00
46718;BME280;32448;44.960;-0.698;2023-04-27T02:00:07;101430.03;;;12.42;100.00
46718;BME280;32448;44.960;-0.698;2023-04-27T02:02:46;101429.97;;;12.39;100.00
46718;BME280;32448;44.960;-0.698;2023-04-27T02:05:14;101423.97;;;12.43;100.00
46718;BME280;32448;44.960;-0.698;2023-04-27T02:07:42;101424.69;;;12.37;100.00
46718;BME280;32448;44.960;-0.698;2023-04-27T02:10:09;101425.66;;;12.41;100.00
46718;BME280;32448;44.960;-0.698;2023-04-27T02:12:36;101420.41;;;12.41;100.00
46718;BME280;32448;44.960;-0.698;2023-04-27T02:15:06;101429.19;;;12.43;100.00
46718;BME280;32448;44.960;-0.698;2023-04-27T02:17:33;101437.09;;;12.45;100.00
46718;BME280;32448;44.960;-0.698;2023-04-27T02:20:00;101430.91;;;12.41;100.00
46718;BME280;32448;44.960;-0.698;2023-04-27T02:22:27;101426.47;;;12.38;100.00
46718;BME280;32448;44.960;-0.698;2023-04-27T02:24:55;101429.94;;;12.36;100.00
46718;BME280;32448;44.960;-0.698;2023-04-27T02:27:22;101440.41;;;12.34;100.00
46718;BME280;32448;44.960;-0.698;2023-04-27T02:29:49;101445.59;;;12.33;100.00
46718;BME280;32448;44.960;-0.698;2023-04-27T02:32:17;101438.56;;;12.30;100.00
46718;BME280;32448;44.960;-0.698;2023-04-27T02:34:44;101439.44;;;12.31;100.00
46718;BME280;32448;44.960;-0.698;2023-04-27T02:37:11;101441.28;;;12.35;100.00
46718;BME280;32448;44.960;-0.698;2023-04-27T02:39:38;101436.06;;;12.36;100.00
46718;BME280;32448;44.960;-0.698;2023-04-27T02:42:05;101429.06;;;12.35;100.00
46718;BME280;32448;44.960;-0.698;2023-04-27T02:44:34;101429.94;;;12.37;100.00
46718;BME280;32448;44.960;-0.698;2023-04-27T02:47:01;101420.41;;;12.41;100.00
46718;BME280;32448;44.960;-0.698;2023-04-27T02:49:29;101415.28;;;12.46;100.00
46718;BME280;32448;44.960;-0.698;2023-04-27T02:51:56;101413.41;;;12.40;100.00
46718;BME280;32448;44.960;-0.698;2023-04-27T02:54:22;101418.66;;;12.40;100.00
46718;BME280;32448;44.960;-0.698;2023-04-27T02:56:49;101419.47;;;12.37;100.00
46718;BME280;32448;44.960;-0.698;2023-04-27T02:59:17;101417.63;;;12.32;100.00
46718;BME280;32448;44.960;-0.698;2023-04-27T03:01:44;101409.88;;;12.39;100.00
46718;BME280;32448;44.960;-0.698;2023-04-27T03:04:11;101398.56;;;12.40;100.00
46718;BME280;32448;44.960;-0.698;2023-04-27T03:06:40;101399.38;;;12.36;100.00
46718;BME280;32448;44.960;-0.698;2023-04-27T03:09:07;101411.59;;;12.36;100.00
46718;BME280;32448;44.960;-0.698;2023-04-27T03:11:35;101411.59;;;12.36;100.00
46718;BME280;32448;44.960;-0.698;2023-04-27T03:14:03;101413.38;;;12.38;100.00
46718;BME280;32448;44.960;-0.698;2023-04-27T03:16:30;101408.13;;;12.37;100.00
46718;BME280;32448;44.960;-0.698;2023-04-27T03:18:57;101404.63;;;12.38;100.00
46718;BME280;32448;44.960;-0.698;2023-04-27T03:21:25;101408.09;;;12.35;100.00
46718;BME280;32448;44.960;-0.698;2023-04-27T03:23:52;101403.72;;;12.36;100.00
46718;BME280;32448;44.960;-0.698;2023-04-27T03:26:21;101397.63;;;12.38;100.00
46718;BME280;32448;44.960;-0.698;2023-04-27T03:28:48;101396.75;;;12.38;100.00
46718;BME280;32448;44.960;-0.698;2023-04-27T03:31:15;101396.72;;;12.35;100.00
46718;BME280;32448;44.960;-0.698;2023-04-27T03:33:42;101395.88;;;12.37;100.00
46718;BME280;32448;44.960;-0.698;2023-04-27T03:36:09;101395.91;;;12.39;100.00
46718;BME280;32448;44.960;-0.698;2023-04-27T03:38:40;101395.00;;;12.37;100.00
46718;BME280;32448;44.960;-0.698;2023-04-27T03:41:07;101388.88;;;12.38;100.00
46718;BME280;32448;44.960;-0.698;2023-04-27T03:43:34;101385.47;;;12.42;100.00
46718;BME280;32448;44.960;-0.698;2023-04-27T03:46:01;101391.53;;;12.39;100.00
46718;BME280;32448;44.960;-0.698;2023-04-27T03:48:29;101381.06;;;12.39;100.00
46718;BME280;32448;44.960;-0.698;2023-04-27T03:50:57;101391.53;;;12.39;100.00
46718;BME280;32448;44.960;-0.698;2023-04-27T03:53:23;101384.66;;;12.45;100.00
46718;BME280;32448;44.960;-0.698;2023-04-27T03:55:51;101391.72;;;12.47;100.00
46718;BME280;32448;44.960;-0.698;2023-04-27T03:58:18;101385.59;;;12.48;100.00
46718;BME280;32448;44.960;-0.698;2023-04-27T04:01:17;101391.75;;;12.50;100.00
46718;BME280;32448;44.960;-0.698;2023-04-27T04:03:45;101384.75;;;12.51;100.00
46718;BME280;32448;44.960;-0.698;2023-04-27T04:06:14;101379.56;;;12.52;100.00
46718;BME280;32448;44.960;-0.698;2023-04-27T04:08:43;101381.28;;;12.52;100.00
46718;BME280;32448;44.960;-0.698;2023-04-27T04:11:11;101384.78;;;12.52;100.00
46718;BME280;32448;44.960;-0.698;2023-04-27T04:13:38;101377.00;;;12.55;100.00
46718;BME280;32448;44.960;-0.698;2023-04-27T04:16:06;101369.13;;;12.55;100.00
46718;BME280;32448;44.960;-0.698;2023-04-27T04:18:34;101369.16;;;12.57;100.00
46718;BME280;32448;44.960;-0.698;2023-04-27T04:21:02;101370.97;;;12.61;100.00
46718;BME280;32448;44.960;-0.698;2023-04-27T04:23:30;101368.38;;;12.62;100.00
46718;BME280;32448;44.960;-0.698;2023-04-27T04:25:58;101368.41;;;12.64;100.00
46718;BME280;32448;44.960;-0.698;2023-04-27T04:28:29;101368.41;;;12.64;100.00
46718;BME280;32448;44.960;-0.698;2023-04-27T04:30:59;101364.91;;;12.63;100.00
46718;BME280;32448;44.960;-0.698;2023-04-27T04:33:27;101364.91;;;12.63;100.00
46718;BME280;32448;44.960;-0.698;2023-04-27T04:35:54;101362.25;;;12.62;100.00
46718;BME280;32448;44.960;-0.698;2023-04-27T04:38:21;101360.53;;;12.64;100.00
46718;BME280;32448;44.960;-0.698;2023-04-27T04:40:50;101353.59;;;12.66;100.00
46718;BME280;32448;44.960;-0.698;2023-04-27T04:43:18;101358.81;;;12.64;100.00
46718;BME280;32448;44.960;-0.698;2023-04-27T04:45:49;101357.81;;;12.59;100.00
46718;BME280;32448;44.960;-0.698;2023-04-27T04:48:16;101354.41;;;12.63;100.00
46718;BME280;32448;44.960;-0.698;2023-04-27T04:50:46;101354.44;;;12.65;100.00
46718;BME280;32448;44.960;-0.698;2023-04-27T04:53:31;101352.63;;;12.62;100.00
46718;BME280;32448;44.960;-0.698;2023-04-27T04:56:07;101339.56;;;12.64;100.00
46718;BME280;32448;44.960;-0.698;2023-04-27T04:58:34;101334.31;;;12.64;100.00
46718;BME280;32448;44.960;-0.698;2023-04-27T05:01:02;101343.91;;;12.63;100.00
46718;BME280;32448;44.960;-0.698;2023-04-27T05:03:30;101331.69;;;12.64;100.00
46718;BME280;32448;44.960;-0.698;2023-04-27T05:05:58;101337.78;;;12.63;100.00
46718;BME280;32448;44.960;-0.698;2023-04-27T05:08:25;101339.56;;;12.64;100.00
46718;BME280;32448;44.960;-0.698;2023-04-27T05:10:52;101351.78;;;12.63;100.00
46718;BME280;32448;44.960;-0.698;2023-04-27T05:13:20;101365.72;;;12.61;100.00
46718;BME280;32448;44.960;-0.698;2023-04-27T05:15:47;101349.16;;;12.63;100.00
46718;BME280;32448;44.960;-0.698;2023-04-27T05:18:14;101344.84;;;12.65;100.00
46718;BME280;32448;44.960;-0.698;2023-04-27T05:20:41;101345.75;;;12.67;100.00
46718;BME280;32448;44.960;-0.698;2023-04-27T05:23:08;101352.75;;;12.68;100.00
46718;BME280;32448;44.960;-0.698;2023-04-27T05:25:35;101333.53;;;12.68;100.00
46718;BME280;32448;44.960;-0.698;2023-04-27T05:28:09;101337.94;;;12.72;100.00
46718;BME280;32448;44.960;-0.698;2023-04-27T05:30:37;101344.06;;;12.72;100.00
46718;BME280;32448;44.960;-0.698;2023-04-27T05:33:04;101344.13;;;12.75;100.00
46718;BME280;32448;44.960;-0.698;2023-04-27T05:35:31;101348.56;;;12.78;100.00
46718;BME280;32448;44.960;-0.698;2023-04-27T05:37:58;101351.25;;;12.83;100.00
46718;BME280;32448;44.960;-0.698;2023-04-27T05:40:25;101356.50;;;12.84;100.00
46718;BME280;32448;44.960;-0.698;2023-04-27T05:42:53;101352.19;;;12.86;100.00
46718;BME280;32448;44.960;-0.698;2023-04-27T05:45:20;101357.50;;;12.89;100.00
46718;BME280;32448;44.960;-0.698;2023-04-27T05:47:47;101354.94;;;12.92;100.00
46718;BME280;32448;44.960;-0.698;2023-04-27T05:50:17;101355.91;;;12.99;100.00
46718;BME280;32448;44.960;-0.698;2023-04-27T05:55:31;101356.84;;;13.04;100.00
46718;BME280;32448;44.960;-0.698;2023-04-27T05:57:59;101357.72;;;13.04;100.00
46718;BME280;32448;44.960;-0.698;2023-04-27T06:00:34;101351.66;;;13.07;100.00
46718;BME280;32448;44.960;-0.698;2023-04-27T06:03:02;101357.88;;;13.12;100.00
46718;BME280;32448;44.960;-0.698;2023-04-27T06:05:30;101355.31;;;13.15;100.00
46718;BME280;32448;44.960;-0.698;2023-04-27T06:07:57;101363.22;;;13.18;100.00
46718;BME280;32448;44.960;-0.698;2023-04-27T06:10:28;101351.88;;;13.19;100.00
46718;BME280;32448;44.960;-0.698;2023-04-27T06:12:55;101344.91;;;13.21;100.00
46718;BME280;32448;44.960;-0.698;2023-04-27T06:15:23;101336.25;;;13.25;100.00
46718;BME280;32448;44.960;-0.698;2023-04-27T06:17:50;101334.56;;;13.30;100.00
46718;BME280;32448;44.960;-0.698;2023-04-27T06:20:17;101334.66;;;13.36;100.00
46718;BME280;32448;44.960;-0.698;2023-04-27T06:22:45;101334.69;;;13.41;100.00
46718;BME280;32448;44.960;-0.698;2023-04-27T06:25:12;101339.22;;;13.51;100.00
46718;BME280;32448;44.960;-0.698;2023-04-27T06:27:40;101341.09;;;13.58;100.00
46718;BME280;32448;44.960;-0.698;2023-04-27T06:30:07;101335.03;;;13.64;100.00
46718;BME280;32448;44.960;-0.698;2023-04-27T06:32:35;101329.00;;;13.72;100.00
46718;BME280;32448;44.960;-0.698;2023-04-27T06:35:03;101334.38;;;13.83;100.00
46718;BME280;32448;44.960;-0.698;2023-04-27T06:37:30;101333.59;;;13.89;100.00
46718;BME280;32448;44.960;-0.698;2023-04-27T06:39:58;101324.94;;;13.97;100.00
46718;BME280;32448;44.960;-0.698;2023-04-27T06:42:26;101332.03;;;14.04;100.00
46718;BME280;32448;44.960;-0.698;2023-04-27T06:44:53;101332.13;;;14.12;100.00
46718;BME280;32448;44.960;-0.698;2023-04-27T06:47:22;101342.81;;;14.29;100.00
46718;BME280;32448;44.960;-0.698;2023-04-27T06:49:49;101348.16;;;14.35;100.00
46718;BME280;32448;44.960;-0.698;2023-04-27T06:52:16;101346.50;;;14.41;100.00
46718;BME280;32448;44.960;-0.698;2023-04-27T06:54:43;101342.19;;;14.48;100.00
46718;BME280;32448;44.960;-0.698;2023-04-27T06:57:11;101344.03;;;14.55;100.00
46718;BME280;32448;44.960;-0.698;2023-04-27T06:59:38;101350.28;;;14.69;100.00
46718;BME280;32448;44.960;-0.698;2023-04-27T07:02:05;101358.25;;;14.75;100.00
46718;BME280;32448;44.960;-0.698;2023-04-27T07:04:33;101349.59;;;14.88;100.00
46718;BME280;32448;44.960;-0.698;2023-04-27T07:07:00;101354.97;;;15.01;100.00
46718;BME280;32448;44.960;-0.698;2023-04-27T07:09:28;101365.56;;;15.10;100.00
46718;BME280;32448;44.960;-0.698;2023-04-27T07:11:56;101361.22;;;15.16;100.00
46718;BME280;32448;44.960;-0.698;2023-04-27T07:14:25;101359.56;;;15.30;100.00
46718;BME280;32448;44.960;-0.698;2023-04-27T07:16:52;101358.72;;;15.32;100.00
46718;BME280;32448;44.960;-0.698;2023-04-27T07:19:19;101358.75;;;15.41;100.00
46718;BME280;32448;44.960;-0.698;2023-04-27T07:21:46;101347.41;;;15.46;100.00
46718;BME280;32448;44.960;-0.698;2023-04-27T07:24:13;101356.22;;;15.53;100.00
46718;BME280;32448;44.960;-0.698;2023-04-27T07:26:40;101364.16;;;15.59;100.00
46718;BME280;32448;44.960;-0.698;2023-04-27T07:29:08;101352.78;;;15.61;100.00
46718;BME280;32448;44.960;-0.698;2023-04-27T07:31:53;101358.97;;;15.67;100.00
46718;BME280;32448;44.960;-0.698;2023-04-27T07:34:21;101349.31;;;15.67;100.00
46718;BME280;32448;44.960;-0.698;2023-04-27T07:36:50;101347.56;;;15.74;100.00
46718;BME280;32448;44.960;-0.698;2023-04-27T07:39:20;101343.22;;;15.85;100.00
46718;BME280;32448;44.960;-0.698;2023-04-27T07:41:47;101345.88;;;15.92;100.00
46718;BME280;32448;44.960;-0.698;2023-04-27T07:44:16;101352.06;;;15.96;100.00
46718;BME280;32448;44.960;-0.698;2023-04-27T07:46:44;101347.69;;;15.96;100.00
46718;BME280;32448;44.960;-0.698;2023-04-27T07:49:14;101354.72;;;16.00;100.00
46718;BME280;32448;44.960;-0.698;2023-04-27T07:51:41;101347.69;;;16.02;100.00
46718;BME280;32448;44.960;-0.698;2023-04-27T07:54:09;101345.94;;;16.03;100.00
46718;BME280;32448;44.960;-0.698;2023-04-27T07:56:36;101345.97;;;16.09;100.00
46718;BME280;32448;44.960;-0.698;2023-04-27T07:59:03;101348.66;;;16.21;100.00
46718;BME280;32448;44.960;-0.698;2023-04-27T08:01:30;101346.88;;;16.26;100.00
46718;BME280;32448;44.960;-0.698;2023-04-27T08:03:57;101338.97;;;16.28;100.00
46718;BME280;32448;44.960;-0.698;2023-04-27T08:06:24;101331.97;;;16.31;100.00
46718;BME280;32448;44.960;-0.698;2023-04-27T08:08:51;101327.56;;;16.36;100.00
46718;BME280;32448;44.960;-0.698;2023-04-27T08:11:19;101324.09;;;16.45;100.00
46718;BME280;32448;44.960;-0.698;2023-04-27T08:13:46;101331.09;;;16.46;100.00
46718;BME280;32448;44.960;-0.698;2023-04-27T08:16:13;101327.59;;;16.58;100.00
46718;BME280;32448;44.960;-0.698;2023-04-27T08:18:40;101333.78;;;16.61;100.00
46718;BME280;32448;44.960;-0.698;2023-04-27T08:21:10;101323.25;;;16.64;100.00
46718;BME280;32448;44.960;-0.698;2023-04-27T08:23:37;101320.56;;;16.60;100.00
46718;BME280;32448;44.960;-0.698;2023-04-27T08:26:04;101311.81;;;16.70;100.00
46718;BME280;32448;44.960;-0.698;2023-04-27T08:28:31;101319.72;;;16.70;100.00
46718;BME280;32448;44.960;-0.698;2023-04-27T08:30:58;101314.47;;;16.78;100.00
46718;BME280;32448;44.960;-0.698;2023-04-27T08:33:25;101317.09;;;16.82;100.00
46718;BME280;32448;44.960;-0.698;2023-04-27T08:35:52;101317.09;;;16.93;100.00
46718;BME280;32448;44.960;-0.698;2023-04-27T08:38:20;101321.50;;;16.92;100.00
46718;BME280;32448;44.960;-0.698;2023-04-27T08:40:51;101318.88;;;16.97;100.00
46718;BME280;32448;44.960;-0.698;2023-04-27T08:43:18;101339.13;;;16.99;100.00
46718;BME280;32448;44.960;-0.698;2023-04-27T08:45:48;101332.06;;;16.98;100.00
46718;BME280;32448;44.960;-0.698;2023-04-27T08:48:19;101333.81;;;17.04;100.00
46718;BME280;32448;44.960;-0.698;2023-04-27T08:50:46;101334.69;;;17.06;100.00
46718;BME280;32448;44.960;-0.698;2023-04-27T08:53:19;101332.94;;;17.05;100.00
46718;BME280;32448;44.960;-0.698;2023-04-27T08:55:47;101339.09;;;17.07;100.00
46718;BME280;32448;44.960;-0.698;2023-04-27T08:58:14;101338.22;;;17.14;100.00
46718;BME280;32448;44.960;-0.698;2023-04-27T09:00:42;101331.16;;;17.24;100.00
46718;BME280;32448;44.960;-0.698;2023-04-27T09:03:23;101330.28;;;17.31;100.00
46718;BME280;32448;44.960;-0.698;2023-04-27T09:05:51;101334.66;;;17.41;100.00
46718;BME280;32448;44.960;-0.698;2023-04-27T09:08:44;101336.41;;;17.46;100.00
46718;BME280;32448;44.960;-0.698;2023-04-27T09:11:12;101335.47;;;17.60;100.00
46718;BME280;32448;44.960;-0.698;2023-04-27T09:13:40;101329.31;;;17.61;100.00
46718;BME280;32448;44.960;-0.698;2023-04-27T09:16:07;101325.78;;;17.74;100.00
46718;BME280;32448;44.960;-0.698;2023-04-27T09:18:35;101331.88;;;18.00;100.00
46718;BME280;32448;44.960;-0.698;2023-04-27T09:21:04;101330.84;;;18.23;100.00
46718;BME280;32448;44.960;-0.698;2023-04-27T09:23:34;101309.66;;;18.24;100.00
46718;BME280;32448;44.960;-0.698;2023-04-27T09:26:02;101314.06;;;18.24;100.00
46718;BME280;32448;44.960;-0.698;2023-04-27T09:28:30;101306.03;;;18.40;100.00
46718;BME280;32448;44.960;-0.698;2023-04-27T09:30:58;101302.44;;;18.53;100.00
46718;BME280;32448;44.960;-0.698;2023-04-27T09:33:26;101301.50;;;18.67;100.00
46718;BME280;32448;44.960;-0.698;2023-04-27T09:35:53;101307.59;;;18.76;100.00
46718;BME280;32448;44.960;-0.698;2023-04-27T09:38:21;101297.72;;;18.90;100.00
46718;BME280;32448;44.960;-0.698;2023-04-27T09:40:49;101304.69;;;19.02;100.00
46718;BME280;32448;44.960;-0.698;2023-04-27T09:43:16;101300.25;;;19.04;100.00
46718;BME280;32448;44.960;-0.698;2023-04-27T09:45:44;101301.03;;;19.15;100.00
46718;BME280;32448;44.960;-0.698;2023-04-27T09:48:11;101311.66;;;19.12;100.00
46718;BME280;32448;44.960;-0.698;2023-04-27T09:50:40;101318.63;;;19.24;100.00
46718;BME280;32448;44.960;-0.698;2023-04-27T09:53:10;101315.03;;;19.31;100.00
46718;BME280;32448;44.960;-0.698;2023-04-27T09:55:48;101319.34;;;19.43;100.00
46718;BME280;32448;44.960;-0.698;2023-04-27T09:58:34;101309.47;;;19.55;100.00
46718;BME280;32448;44.960;-0.698;2023-04-27T10:09:09;101313.00;;;19.56;100.00
46718;BME280;32448;44.960;-0.698;2023-04-27T10:11:40;101316.41;;;19.69;100.00
46718;BME280;32448;44.960;-0.698;2023-04-27T10:14:08;101309.16;;;19.83;100.00
46718;BME280;32448;44.960;-0.698;2023-04-27T10:16:45;101308.44;;;19.67;100.00
46718;BME280;32448;44.960;-0.698;2023-04-27T10:19:13;101317.28;;;19.69;100.00
46718;BME280;32448;44.960;-0.698;2023-04-27T10:21:57;101312.78;;;19.76;100.00
46718;BME280;32448;44.960;-0.698;2023-04-27T10:24:40;101302.00;;;19.89;100.00
46718;BME280;32448;44.960;-0.698;2023-04-27T10:27:09;101311.41;;;20.13;100.00
46718;BME280;32448;44.960;-0.698;2023-04-27T10:29:41;101313.19;;;20.13;100.00
46718;BME280;32448;44.960;-0.698;2023-04-27T10:32:09;101303.38;;;20.18;100.00
46718;BME280;32448;44.960;-0.698;2023-04-27T10:34:37;101295.56;;;20.07;100.00
46718;BME280;32448;44.960;-0.698;2023-04-27T10:37:08;101299.91;;;20.13;100.00
46718;BME280;32448;44.960;-0.698;2023-04-27T10:39:39;101307.00;;;20.11;100.00
46718;BME280;32448;44.960;-0.698;2023-04-27T10:42:25;101310.50;;;20.14;100.00
46718;BME280;32448;44.960;-0.698;2023-04-27T10:44:57;101304.25;;;20.20;100.00
46718;BME280;32448;44.960;-0.698;2023-04-27T10:47:34;101304.03;;;20.33;100.00
46718;BME280;32448;44.960;-0.698;2023-04-27T10:50:03;101296.00;;;20.43;100.00
46718;BME280;32448;44.960;-0.698;2023-04-27T10:52:30;101293.50;;;20.27;100.00
46718;BME280;32448;44.960;-0.698;2023-04-27T10:54:57;101301.22;;;20.47;100.00
46718;BME280;32448;44.960;-0.698;2023-04-27T10:57:24;101302.72;;;20.65;100.00
46718;BME280;32448;44.960;-0.698;2023-04-27T10:59:52;101296.22;;;20.81;100.00
46718;BME280;32448;44.960;-0.698;2023-04-27T11:02:24;101305.22;;;20.74;100.00
46718;BME280;32448;44.960;-0.698;2023-04-27T11:04:53;101303.34;;;20.79;100.00
46718;BME280;32448;44.960;-0.698;2023-04-27T11:07:23;101290.00;;;20.84;100.00
46718;BME280;32448;44.960;-0.698;2023-04-27T11:09:51;101285.34;;;20.96;100.00
46718;BME280;32448;44.960;-0.698;2023-04-27T11:12:18;101297.63;;;21.02;100.00
46718;BME280;32448;44.960;-0.698;2023-04-27T11:14:46;101295.78;;;21.08;100.00
46718;BME280;32448;44.960;-0.698;2023-04-27T11:17:13;101301.00;;;21.12;100.00
46718;BME280;32448;44.960;-0.698;2023-04-27T11:19:44;101293.69;;;21.26;100.00
46718;BME280;32448;44.960;-0.698;2023-04-27T11:22:12;101268.88;;;21.25;100.00
46718;BME280;32448;44.960;-0.698;2023-04-27T11:24:49;101269.81;;;21.23;100.00
46718;BME280;32448;44.960;-0.698;2023-04-27T11:27:16;101280.19;;;21.38;100.00
46718;BME280;32448;44.960;-0.698;2023-04-27T11:29:44;101273.91;;;21.42;100.00
46718;BME280;32448;44.960;-0.698;2023-04-27T11:32:18;101261.50;;;21.41;100.00
46718;BME280;32448;44.960;-0.698;2023-04-27T11:34:49;101261.19;;;21.55;100.00
46718;BME280;32448;44.960;-0.698;2023-04-27T11:37:22;101254.03;;;21.60;100.00
46718;BME280;32448;44.960;-0.698;2023-04-27T11:39:50;101269.69;;;21.75;100.00
46718;BME280;32448;44.960;-0.698;2023-04-27T11:42:18;101264.16;;;21.84;100.00
46718;BME280;32448;44.960;-0.698;2023-04-27T11:44:59;101247.28;;;21.85;100.00
46718;BME280;32448;44.960;-0.698;2023-04-27T11:47:28;101250.84;;;21.84;100.00
46718;BME280;32448;44.960;-0.698;2023-04-27T11:49:55;101239.44;;;21.77;100.00
46718;BME280;32448;44.960;-0.698;2023-04-27T11:52:30;101240.94;;;21.91;100.00
46718;BME280;32448;44.960;-0.698;2023-04-27T11:54:58;101239.84;;;22.01;100.00
46718;BME280;32448;44.960;-0.698;2023-04-27T11:57:26;101241.94;;;22.25;100.00
46718;BME280;32448;44.960;-0.698;2023-04-27T11:59:55;101227.63;;;22.31;100.00
46718;BME280;32448;44.960;-0.698;2023-04-27T12:02:22;101230.44;;;22.60;100.00
46718;BME280;32448;44.960;-0.698;2023-04-27T12:04:50;101232.69;;;22.77;100.00
46718;BME280;32448;44.960;-0.698;2023-04-27T12:07:18;101224.78;;;22.72;100.00
46718;BME280;32448;44.960;-0.698;2023-04-27T12:09:45;101230.25;;;22.66;100.00
46718;BME280;32448;44.960;-0.698;2023-04-27T12:12:13;101223.84;;;22.75;100.00
46718;BME280;32448;44.960;-0.698;2023-04-27T12:14:40;101221.91;;;22.81;100.00
46718;BME280;32448;44.960;-0.698;2023-04-27T12:17:07;101223.59;;;22.85;100.00
46718;BME280;32448;44.960;-0.698;2023-04-27T12:19:35;101222.28;;;23.00;100.00
46718;BME280;32448;44.960;-0.698;2023-04-27T12:22:02;101217.00;;;22.99;100.00
46718;BME280;32448;44.960;-0.698;2023-04-27T12:24:30;101218.91;;;22.94;100.00
46718;BME280;32448;44.960;-0.698;2023-04-27T12:26:58;101228.13;;;22.82;100.00
46718;BME280;32448;44.960;-0.698;2023-04-27T12:29:25;101223.72;;;22.79;100.00
46718;BME280;32448;44.960;-0.698;2023-04-27T12:31:52;101215.38;;;22.93;100.00
46718;BME280;32448;44.960;-0.698;2023-04-27T12:34:19;101218.41;;;23.12;100.00
46718;BME280;32448;44.960;-0.698;2023-04-27T12:36:46;101219.03;;;23.21;100.00
46718;BME280;32448;44.960;-0.698;2023-04-27T12:39:15;101212.03;;;23.17;100.00
46718;BME280;32448;44.960;-0.698;2023-04-27T12:41:49;101211.47;;;23.06;100.00
46718;BME280;32448;44.960;-0.698;2023-04-27T12:44:17;101216.91;;;23.02;100.00
46718;BME280;32448;44.960;-0.698;2023-04-27T12:46:44;101218.34;;;22.82;100.00
46718;BME280;32448;44.960;-0.698;2023-04-27T12:49:14;101214.38;;;22.63;100.00